sensor_id;sensor_type;location;lat;lon;timestamp;pressure;altitude;pressure_sealevel;temperature;humidity
28181;BME280;15464;50.988;10.318;2023-06-10T00:02:23;98847.78;;;16.91;61.64
28181;BME280;15464;50.988;10.318;2023-06-10T00:04:50;98849.81;;;16.81;61.80
28181;BME280;15464;50.988;10.318;2023-06-10T00:07:17;98852.53;;;16.73;61.83
28181;BME280;15464;50.988;10.318;2023-06-10T00:09:44;98852.56;;;16.65;62.15
28181;BME280;15464;50.988;10.318;2023-06-10T00:12:11;98847.19;;;16.65;62.39
28181;BME280;15464;50.988;10.318;2023-06-10T00:14:39;98847.53;;;16.62;62.24
28181;BME280;15464;50.988;10.318;2023-06-10T00:17:07;98852.69;;;16.55;61.87
28181;BME280;15464;50.988;10.318;2023-06-10T00:19:38;98848.22;;;16.48;63.02
28181;BME280;15464;50.988;10.318;2023-06-10T00:22:08;98846.88;;;16.44;62.25
28181;BME280;15464;50.988;10.318;2023-06-10T00:24:37;98852.25;;;16.36;61.70
28181;BME280;15464;50.988;10.318;2023-06-10T00:27:05;98856.63;;;16.29;62.13
28181;BME280;15464;50.988;10.318;2023-06-10T00:29:33;98855.25;;;16.25;62.91
28181;BME280;15464;50.988;10.318;2023-06-10T00:32:00;98864.00;;;16.10;62.34
28181;BME280;15464;50.988;10.318;2023-06-10T00:34:27;98859.66;;;16.09;63.58
28181;BME280;15464;50.988;10.318;2023-06-10T00:36:54;98858.28;;;16.05;63.42
28181;BME280;15464;50.988;10.318;2023-06-10T00:39:20;98866.34;;;15.97;63.49
28181;BME280;15464;50.988;10.318;2023-06-10T00:41:47;98867.00;;;15.91;64.12
28181;BME280;15464;50.988;10.318;2023-06-10T00:44:14;98871.00;;;15.87;64.22
28181;BME280;15464;50.988;10.318;2023-06-10T00:46:40;98868.00;;;15.82;65.71
28181;BME280;15464;50.988;10.318;2023-06-10T00:49:07;98869.19;;;15.80;65.67
28181;BME280;15464;50.988;10.318;2023-06-10T00:51:35;98866.97;;;15.75;65.41
28181;BME280;15464;50.988;10.318;2023-06-10T00:54:02;98862.28;;;15.69;64.58
28181;BME280;15464;50.988;10.318;2023-06-10T00:56:29;98866.63;;;15.62;65.48
28181;BME280;15464;50.988;10.318;2023-06-10T00:58:56;98865.28;;;15.58;66.04
28181;BME280;15464;50.988;10.318;2023-06-10T01:01:24;98868.75;;;15.50;66.42
28181;BME280;15464;50.988;10.318;2023-06-10T01:03:52;98873.59;;;15.47;65.96
28181;BME280;15464;50.988;10.318;2023-06-10T01:06:29;98871.22;;;15.44;66.29
28181;BME280;15464;50.988;10.318;2023-06-10T01:09:14;98870.53;;;15.33;65.29
28181;BME280;15464;50.988;10.318;2023-06-10T01:12:05;98872.19;;;15.26;66.55
28181;BME280;15464;50.988;10.318;2023-06-10T01:14:38;98873.69;;;15.21;66.74
28181;BME280;15464;50.988;10.318;2023-06-10T01:17:11;98876.84;;;15.16;66.81
28181;BME280;15464;50.988;10.318;2023-06-10T01:19:38;98863.13;;;15.11;67.24
28181;BME280;15464;50.988;10.318;2023-06-10T01:22:07;98869.13;;;15.05;67.05
28181;BME280;15464;50.988;10.318;2023-06-10T01:24:34;98876.75;;;15.00;66.89
28181;BME280;15464;50.988;10.318;2023-06-10T01:27:04;98872.75;;;14.96;67.28
28181;BME280;15464;50.988;10.318;2023-06-10T01:29:45;98877.75;;;14.91;68.05
28181;BME280;15464;50.988;10.318;2023-06-10T01:32:19;98879.72;;;14.89;67.44
28181;BME280;15464;50.988;10.318;2023-06-10T01:34:48;98882.03;;;14.84;68.31
28181;BME280;15464;50.988;10.318;2023-06-10T01:37:19;98885.50;;;14.76;67.96
28181;BME280;15464;50.988;10.318;2023-06-10T01:39:48;98883.31;;;14.72;68.77
28181;BME280;15464;50.988;10.318;2023-06-10T01:42:15;98881.28;;;14.66;68.92
28181;BME280;15464;50.988;10.318;2023-06-10T01:44:42;98886.78;;;14.64;68.39
28181;BME280;15464;50.988;10.318;2023-06-10T01:47:09;98894.94;;;14.63;68.65
28181;BME280;15464;50.988;10.318;2023-06-10T01:49:36;98901.59;;;14.59;68.30
28181;BME280;15464;50.988;10.318;2023-06-10T01:52:02;98904.56;;;14.56;68.45
28181;BME280;15464;50.988;10.318;2023-06-10T01:54:29;98903.34;;;14.50;68.72
28181;BME280;15464;50.988;10.318;2023-06-10T01:56:56;98903.00;;;14.45;69.55
28181;BME280;15464;50.988;10.318;2023-06-10T01:59:23;98907.81;;;14.41;69.58
28181;BME280;15464;50.988;10.318;2023-06-10T02:01:49;98910.09;;;14.36;69.66
28181;BME280;15464;50.988;10.318;2023-06-10T02:04:16;98909.53;;;14.33;69.89
28181;BME280;15464;50.988;10.318;2023-06-10T02:06:43;98907.34;;;14.28;69.89
28181;BME280;15464;50.988;10.318;2023-06-10T02:09:09;98907.00;;;14.23;70.58
28181;BME280;15464;50.988;10.318;2023-06-10T02:11:36;98918.09;;;14.19;70.33
28181;BME280;15464;50.988;10.318;2023-06-10T02:14:03;98920.25;;;14.15;70.26
28181;BME280;15464;50.988;10.318;2023-06-10T02:16:30;98923.53;;;14.09;70.41
28181;BME280;15464;50.988;10.318;2023-06-10T02:18:57;98918.66;;;14.04;70.46
28181;BME280;15464;50.988;10.318;2023-06-10T02:21:25;98919.44;;;13.97;71.69
28181;BME280;15464;50.988;10.318;2023-06-10T02:23:51;98922.78;;;13.99;71.11
28181;BME280;15464;50.988;10.318;2023-06-10T02:26:18;98915.22;;;13.94;69.79
28181;BME280;15464;50.988;10.318;2023-06-10T02:28:45;98912.19;;;13.89;70.64
28181;BME280;15464;50.988;10.318;2023-06-10T02:31:13;98921.31;;;13.87;69.96
28181;BME280;15464;50.988;10.318;2023-06-10T02:33:39;98922.63;;;13.83;70.08
28181;BME280;15464;50.988;10.318;2023-06-10T02:36:06;98928.28;;;13.80;71.11
28181;BME280;15464;50.988;10.318;2023-06-10T02:38:33;98932.22;;;13.76;71.36
28181;BME280;15464;50.988;10.318;2023-06-10T02:41:00;98928.31;;;13.70;71.41
28181;BME280;15464;50.988;10.318;2023-06-10T02:43:28;98928.78;;;13.65;71.25
28181;BME280;15464;50.988;10.318;2023-06-10T02:45:54;98935.09;;;13.64;71.84
28181;BME280;15464;50.988;10.318;2023-06-10T02:48:23;98938.06;;;13.61;72.02
28181;BME280;15464;50.988;10.318;2023-06-10T02:50:50;98923.06;;;13.60;70.66
28181;BME280;15464;50.988;10.318;2023-06-10T02:53:17;98930.09;;;13.61;71.61
28181;BME280;15464;50.988;10.318;2023-06-10T02:55:44;98925.03;;;13.58;71.12
28181;BME280;15464;50.988;10.318;2023-06-10T02:58:10;98935.47;;;13.52;72.20
28181;BME280;15464;50.988;10.318;2023-06-10T03:00:37;98925.41;;;13.46;72.35
28181;BME280;15464;50.988;10.318;2023-06-10T03:03:06;98933.72;;;13.43;72.52
28181;BME280;15464;50.988;10.318;2023-06-10T03:05:33;98926.84;;;13.40;71.93
28181;BME280;15464;50.988;10.318;2023-06-10T03:08:00;98918.84;;;13.40;72.53
28181;BME280;15464;50.988;10.318;2023-06-10T03:10:26;98912.16;;;13.36;72.54
28181;BME280;15464;50.988;10.318;2023-06-10T03:12:53;98909.47;;;13.36;72.38
28181;BME280;15464;50.988;10.318;2023-06-10T03:15:20;98909.75;;;13.33;71.89
28181;BME280;15464;50.988;10.318;2023-06-10T03:17:47;98910.09;;;13.30;72.62
28181;BME280;15464;50.988;10.318;2023-06-10T03:20:14;98910.09;;;13.30;73.06
28181;BME280;15464;50.988;10.318;2023-06-10T03:22:42;98912.88;;;13.28;72.47
28181;BME280;15464;50.988;10.318;2023-06-10T03:25:09;98908.69;;;13.26;72.73
28181;BME280;15464;50.988;10.318;2023-06-10T03:27:42;98922.13;;;13.24;73.00
28181;BME280;15464;50.988;10.318;2023-06-10T03:30:09;98927.25;;;13.18;74.08
28181;BME280;15464;50.988;10.318;2023-06-10T03:32:36;98922.91;;;13.17;73.83
28181;BME280;15464;50.988;10.318;2023-06-10T03:35:03;98923.03;;;13.15;73.75
28181;BME280;15464;50.988;10.318;2023-06-10T03:37:30;98938.19;;;13.15;74.18
28181;BME280;15464;50.988;10.318;2023-06-10T03:39:57;98930.34;;;13.13;73.76
28181;BME280;15464;50.988;10.318;2023-06-10T03:42:23;98922.44;;;13.12;73.21
28181;BME280;15464;50.988;10.318;2023-06-10T03:44:50;98921.66;;;13.11;73.17
28181;BME280;15464;50.988;10.318;2023-06-10T03:47:17;98932.16;;;13.13;73.62
28181;BME280;15464;50.988;10.318;2023-06-10T03:49:44;98927.09;;;13.10;73.76
28181;BME280;15464;50.988;10.318;2023-06-10T03:52:11;98926.13;;;13.11;73.11
28181;BME280;15464;50.988;10.318;2023-06-10T03:54:37;98942.09;;;13.11;73.57
28181;BME280;15464;50.988;10.318;2023-06-10T03:57:04;98935.25;;;13.08;73.47
28181;BME280;15464;50.988;10.318;2023-06-10T03:59:32;98938.03;;;13.07;73.45
28181;BME280;15464;50.988;10.318;2023-06-10T04:01:59;98936.34;;;13.06;73.14
28181;BME280;15464;50.988;10.318;2023-06-10T04:04:27;98932.88;;;13.05;72.19
28181;BME280;15464;50.988;10.318;2023-06-10T04:06:53;98939.59;;;13.09;72.71
28181;BME280;15464;50.988;10.318;2023-06-10T04:09:20;98940.56;;;13.08;73.17
28181;BME280;15464;50.988;10.318;2023-06-10T04:11:47;98940.28;;;13.11;73.12
28181;BME280;15464;50.988;10.318;2023-06-10T04:14:14;98935.09;;;13.10;72.79
28181;BME280;15464;50.988;10.318;2023-06-10T04:16:41;98943.50;;;13.15;72.93
28181;BME280;15464;50.988;10.318;2023-06-10T04:19:09;98937.72;;;13.19;74.16
28181;BME280;15464;50.988;10.318;2023-06-10T04:21:36;98938.72;;;13.18;74.94
28181;BME280;15464;50.988;10.318;2023-06-10T04:24:03;98943.75;;;13.21;74.79
28181;BME280;15464;50.988;10.318;2023-06-10T04:26:30;98943.16;;;13.27;74.61
28181;BME280;15464;50.988;10.318;2023-06-10T04:28:56;98941.75;;;13.33;75.08
28181;BME280;15464;50.988;10.318;2023-06-10T04:31:23;98947.44;;;13.38;75.23
28181;BME280;15464;50.988;10.318;2023-06-10T04:33:50;98943.91;;;13.47;75.23
28181;BME280;15464;50.988;10.318;2023-06-10T04:36:17;98942.75;;;13.50;75.38
28181;BME280;15464;50.988;10.318;2023-06-10T04:38:43;98953.97;;;13.53;75.21
28181;BME280;15464;50.988;10.318;2023-06-10T04:41:10;98955.34;;;13.57;75.60
28181;BME280;15464;50.988;10.318;2023-06-10T04:43:37;98954.44;;;13.66;76.32
28181;BME280;15464;50.988;10.318;2023-06-10T04:46:04;98944.25;;;13.80;75.86
28181;BME280;15464;50.988;10.318;2023-06-10T04:48:34;98943.06;;;13.92;75.88
28181;BME280;15464;50.988;10.318;2023-06-10T04:51:02;98946.63;;;14.00;75.44
28181;BME280;15464;50.988;10.318;2023-06-10T04:53:28;98941.22;;;14.10;75.29
28181;BME280;15464;50.988;10.318;2023-06-10T04:55:56;98943.31;;;14.24;75.22
28181;BME280;15464;50.988;10.318;2023-06-10T04:58:24;98938.75;;;14.34;74.34
28181;BME280;15464;50.988;10.318;2023-06-10T05:00:50;98941.13;;;14.37;73.48
28181;BME280;15464;50.988;10.318;2023-06-10T05:03:17;98937.53;;;14.46;73.86
28181;BME280;15464;50.988;10.318;2023-06-10T05:05:44;98946.97;;;14.59;74.02
28181;BME280;15464;50.988;10.318;2023-06-10T05:08:11;98940.69;;;14.68;73.43
28181;BME280;15464;50.988;10.318;2023-06-10T05:10:37;98951.63;;;14.82;73.34
28181;BME280;15464;50.988;10.318;2023-06-10T05:13:04;98947.53;;;14.96;73.70
28181;BME280;15464;50.988;10.318;2023-06-10T05:15:31;98944.94;;;15.12;73.80
28181;BME280;15464;50.988;10.318;2023-06-10T05:17:58;98945.53;;;15.24;73.47
28181;BME280;15464;50.988;10.318;2023-06-10T05:20:25;98950.38;;;15.37;73.17
28181;BME280;15464;50.988;10.318;2023-06-10T05:22:53;98948.28;;;15.48;72.92
28181;BME280;15464;50.988;10.318;2023-06-10T05:25:20;98948.00;;;15.59;73.00
28181;BME280;15464;50.988;10.318;2023-06-10T05:27:46;98952.06;;;15.71;72.25
28181;BME280;15464;50.988;10.318;2023-06-10T05:30:13;98951.59;;;15.84;71.51
28181;BME280;15464;50.988;10.318;2023-06-10T05:32:40;98950.94;;;15.90;70.79
28181;BME280;15464;50.988;10.318;2023-06-10T05:35:06;98954.13;;;16.02;70.90
28181;BME280;15464;50.988;10.318;2023-06-10T05:37:34;98967.00;;;16.14;70.20
28181;BME280;15464;50.988;10.318;2023-06-10T05:40:03;98962.53;;;16.23;70.33
28181;BME280;15464;50.988;10.318;2023-06-10T05:42:31;98955.84;;;16.35;70.17
28181;BME280;15464;50.988;10.318;2023-06-10T05:44:57;98960.31;;;16.43;70.09
28181;BME280;15464;50.988;10.318;2023-06-10T05:47:24;98970.38;;;16.57;69.66
28181;BME280;15464;50.988;10.318;2023-06-10T05:49:51;98961.22;;;16.68;69.49
28181;BME280;15464;50.988;10.318;2023-06-10T05:52:18;98954.28;;;16.81;69.18
28181;BME280;15464;50.988;10.318;2023-06-10T05:54:45;98962.31;;;16.98;69.39
28181;BME280;15464;50.988;10.318;2023-06-10T05:57:12;98959.28;;;17.09;69.12
28181;BME280;15464;50.988;10.318;2023-06-10T05:59:38;98957.22;;;17.19;69.44
28181;BME280;15464;50.988;10.318;2023-06-10T06:02:05;98959.50;;;17.38;66.97
28181;BME280;15464;50.988;10.318;2023-06-10T06:04:32;98963.47;;;17.50;68.11
28181;BME280;15464;50.988;10.318;2023-06-10T06:06:59;98956.56;;;17.64;67.06
28181;BME280;15464;50.988;10.318;2023-06-10T06:09:26;98963.50;;;17.81;65.25
28181;BME280;15464;50.988;10.318;2023-06-10T06:11:53;98956.94;;;17.92;65.11
28181;BME280;15464;50.988;10.318;2023-06-10T06:14:19;98963.47;;;18.12;64.30
28181;BME280;15464;50.988;10.318;2023-06-10T06:16:46;98971.16;;;18.23;63.43
28181;BME280;15464;50.988;10.318;2023-06-10T06:19:13;98975.13;;;18.27;63.85
28181;BME280;15464;50.988;10.318;2023-06-10T06:21:39;98969.34;;;18.38;63.05
28181;BME280;15464;50.988;10.318;2023-06-10T06:24:06;98966.22;;;18.49;63.13
28181;BME280;15464;50.988;10.318;2023-06-10T06:26:33;98970.16;;;18.62;62.75
28181;BME280;15464;50.988;10.318;2023-06-10T06:29:00;98967.06;;;18.73;61.67
28181;BME280;15464;50.988;10.318;2023-06-10T06:31:27;98971.72;;;18.79;62.05
28181;BME280;15464;50.988;10.318;2023-06-10T06:33:53;98970.59;;;18.88;61.79
28181;BME280;15464;50.988;10.318;2023-06-10T06:36:20;98964.69;;;18.92;61.83
28181;BME280;15464;50.988;10.318;2023-06-10T06:38:47;98972.09;;;19.05;62.31
28181;BME280;15464;50.988;10.318;2023-06-10T06:41:13;98977.22;;;19.15;60.54
28181;BME280;15464;50.988;10.318;2023-06-10T06:43:40;98968.69;;;19.26;61.20
28181;BME280;15464;50.988;10.318;2023-06-10T06:46:09;98971.28;;;19.34;60.34
28181;BME280;15464;50.988;10.318;2023-06-10T06:48:35;98967.28;;;19.45;60.95
28181;BME280;15464;50.988;10.318;2023-06-10T06:51:02;98981.78;;;19.58;59.97
28181;BME280;15464;50.988;10.318;2023-06-10T06:53:29;98971.75;;;19.67;59.32
28181;BME280;15464;50.988;10.318;2023-06-10T06:55:57;98965.22;;;19.76;60.75
28181;BME280;15464;50.988;10.318;2023-06-10T06:58:24;98971.53;;;19.83;58.77
28181;BME280;15464;50.988;10.318;2023-06-10T07:00:51;98979.09;;;19.94;59.44
28181;BME280;15464;50.988;10.318;2023-06-10T07:03:17;98975.53;;;20.08;59.29
28181;BME280;15464;50.988;10.318;2023-06-10T07:05:44;98971.97;;;20.23;59.10
28181;BME280;15464;50.988;10.318;2023-06-10T07:08:11;98975.84;;;20.35;57.72
28181;BME280;15464;50.988;10.318;2023-06-10T07:10:38;98973.00;;;20.43;57.27
28181;BME280;15464;50.988;10.318;2023-06-10T07:13:05;98981.75;;;20.45;57.82
28181;BME280;15464;50.988;10.318;2023-06-10T07:15:31;98983.66;;;20.51;57.15
28181;BME280;15464;50.988;10.318;2023-06-10T07:17:59;98969.34;;;20.72;57.74
28181;BME280;15464;50.988;10.318;2023-06-10T07:20:26;98979.50;;;20.98;58.17
28181;BME280;15464;50.988;10.318;2023-06-10T07:22:52;98982.66;;;21.29;56.61
28181;BME280;15464;50.988;10.318;2023-06-10T07:25:20;98974.16;;;21.32;55.89
28181;BME280;15464;50.988;10.318;2023-06-10T07:27:46;98982.13;;;21.47;56.08
28181;BME280;15464;50.988;10.318;2023-06-10T07:30:13;98973.13;;;21.81;54.88
28181;BME280;15464;50.988;10.318;2023-06-10T07:32:40;98977.38;;;21.96;53.89
28181;BME280;15464;50.988;10.318;2023-06-10T07:35:09;98972.56;;;21.92;54.45
28181;BME280;15464;50.988;10.318;2023-06-10T07:37:38;98975.34;;;22.05;54.71
28181;BME280;15464;50.988;10.318;2023-06-10T07:40:05;98977.03;;;22.19;53.65
28181;BME280;15464;50.988;10.318;2023-06-10T07:42:34;98978.75;;;22.53;54.31
28181;BME280;15464;50.988;10.318;2023-06-10T07:45:05;98970.88;;;22.91;53.59
28181;BME280;15464;50.988;10.318;2023-06-10T07:47:33;98965.88;;;22.88;52.49
28181;BME280;15464;50.988;10.318;2023-06-10T07:50:00;98961.94;;;22.84;53.20
28181;BME280;15464;50.988;10.318;2023-06-10T07:52:27;98959.13;;;23.37;52.98
28181;BME280;15464;50.988;10.318;2023-06-10T07:54:55;98959.19;;;23.17;50.64
28181;BME280;15464;50.988;10.318;2023-06-10T07:57:21;98963.50;;;23.38;50.65
28181;BME280;15464;50.988;10.318;2023-06-10T07:59:48;98962.06;;;23.42;50.94
28181;BME280;15464;50.988;10.318;2023-06-10T08:02:15;98965.16;;;23.58;51.43
28181;BME280;15464;50.988;10.318;2023-06-10T08:04:42;98955.78;;;23.61;49.69
28181;BME280;15464;50.988;10.318;2023-06-10T08:07:09;98965.34;;;23.57;49.99
28181;BME280;15464;50.988;10.318;2023-06-10T08:09:35;98957.84;;;23.59;50.58
28181;BME280;15464;50.988;10.318;2023-06-10T08:12:02;98954.34;;;23.96;51.21
28181;BME280;15464;50.988;10.318;2023-06-10T08:14:29;98967.44;;;23.99;50.35
28181;BME280;15464;50.988;10.318;2023-06-10T08:16:56;98959.63;;;24.29;48.45
28181;BME280;15464;50.988;10.318;2023-06-10T08:19:23;98954.59;;;24.58;48.79
28181;BME280;15464;50.988;10.318;2023-06-10T08:21:49;98965.16;;;24.41;48.75
28181;BME280;15464;50.988;10.318;2023-06-10T08:24:16;98974.06;;;24.23;48.30
28181;BME280;15464;50.988;10.318;2023-06-10T08:26:45;98963.91;;;23.99;49.60
28181;BME280;15464;50.988;10.318;2023-06-10T08:29:12;98964.69;;;24.12;49.55
28181;BME280;15464;50.988;10.318;2023-06-10T08:31:43;98961.53;;;24.16;51.10
28181;BME280;15464;50.988;10.318;2023-06-10T08:34:10;98965.25;;;24.28;49.75
28181;BME280;15464;50.988;10.318;2023-06-10T08:36:38;98966.22;;;24.40;48.64
28181;BME280;15464;50.988;10.318;2023-06-10T08:39:05;98968.09;;;24.39;48.26
28181;BME280;15464;50.988;10.318;2023-06-10T08:41:35;98961.81;;;24.70;48.90
28181;BME280;15464;50.988;10.318;2023-06-10T08:44:10;98963.41;;;24.78;48.56
28181;BME280;15464;50.988;10.318;2023-06-10T08:46:37;98963.78;;;24.81;48.54
28181;BME280;15464;50.988;10.318;2023-06-10T08:49:06;98963.31;;;24.66;48.65
28181;BME280;15464;50.988;10.318;2023-06-10T08:51:35;98953.78;;;24.82;48.01
28181;BME280;15464;50.988;10.318;2023-06-10T08:54:13;98953.28;;;24.42;48.91
28181;BME280;15464;50.988;10.318;2023-06-10T08:56:42;98962.34;;;24.29;49.79
28181;BME280;15464;50.988;10.318;2023-06-10T08:59:10;98952.81;;;24.07;50.65
28181;BME280;15464;50.988;10.318;2023-06-10T09:01:38;98950.28;;;24.19;51.07
28181;BME280;15464;50.988;10.318;2023-06-10T09:04:05;98940.88;;;24.52;51.44
28181;BME280;15464;50.988;10.318;2023-06-10T09:06:32;98953.22;;;24.48;49.82
28181;BME280;15464;50.988;10.318;2023-06-10T09:09:00;98947.16;;;24.22;51.10
28181;BME280;15464;50.988;10.318;2023-06-10T09:11:29;98937.97;;;24.23;50.73
28181;BME280;15464;50.988;10.318;2023-06-10T09:13:56;98938.63;;;24.11;51.67
28181;BME280;15464;50.988;10.318;2023-06-10T09:16:24;98939.53;;;23.99;51.97
28181;BME280;15464;50.988;10.318;2023-06-10T09:18:51;98928.44;;;24.07;51.59
28181;BME280;15464;50.988;10.318;2023-06-10T09:21:22;98931.97;;;24.07;51.78
28181;BME280;15464;50.988;10.318;2023-06-10T09:23:49;98927.19;;;24.09;51.03
28181;BME280;15464;50.988;10.318;2023-06-10T09:26:17;98938.06;;;24.03;50.79
28181;BME280;15464;50.988;10.318;2023-06-10T09:28:48;98932.16;;;24.12;51.31
28181;BME280;15464;50.988;10.318;2023-06-10T09:31:16;98933.03;;;24.06;51.57
28181;BME280;15464;50.988;10.318;2023-06-10T09:33:48;98933.47;;;24.03;52.46
28181;BME280;15464;50.988;10.318;2023-06-10T09:36:23;98937.31;;;24.27;50.35
28181;BME280;15464;50.988;10.318;2023-06-10T09:38:50;98931.72;;;24.16;49.78
28181;BME280;15464;50.988;10.318;2023-06-10T09:41:19;98929.78;;;23.91;50.62
28181;BME280;15464;50.988;10.318;2023-06-10T09:43:47;98929.28;;;24.07;51.11
28181;BME280;15464;50.988;10.318;2023-06-10T09:46:16;98919.25;;;24.08;50.20
28181;BME280;15464;50.988;10.318;2023-06-10T09:48:45;98923.84;;;24.07;50.84
28181;BME280;15464;50.988;10.318;2023-06-10T09:51:15;98922.03;;;24.33;51.24
28181;BME280;15464;50.988;10.318;2023-06-10T09:53:51;98918.28;;;24.34;50.44
28181;BME280;15464;50.988;10.318;2023-06-10T09:56:18;98921.13;;;24.45;49.73
28181;BME280;15464;50.988;10.318;2023-06-10T09:58:45;98918.44;;;24.39;50.07
28181;BME280;15464;50.988;10.318;2023-06-10T10:01:14;98924.72;;;24.64;49.76
28181;BME280;15464;50.988;10.318;2023-06-10T10:03:49;98924.28;;;24.67;49.11
28181;BME280;15464;50.988;10.318;2023-06-10T10:06:17;98910.53;;;24.62;49.36
28181;BME280;15464;50.988;10.318;2023-06-10T10:08:49;98922.63;;;24.66;49.57
28181;BME280;15464;50.988;10.318;2023-06-10T10:11:18;98914.19;;;24.74;48.51
28181;BME280;15464;50.988;10.318;2023-06-10T10:13:47;98914.81;;;24.76;49.50
28181;BME280;15464;50.988;10.318;2023-06-10T10:16:20;98914.88;;;24.95;47.94
28181;BME280;15464;50.988;10.318;2023-06-10T10:19:01;98917.81;;;25.11;49.17
28181;BME280;15464;50.988;10.318;2023-06-10T10:21:36;98920.69;;;24.73;48.90
28181;BME280;15464;50.988;10.318;2023-06-10T10:24:17;98917.16;;;25.16;48.23
28181;BME280;15464;50.988;10.318;2023-06-10T10:26:47;98917.75;;;25.18;47.50
28181;BME280;15464;50.988;10.318;2023-06-10T10:29:20;98918.38;;;25.20;47.22
28181;BME280;15464;50.988;10.318;2023-06-10T10:31:50;98912.16;;;25.13;47.27
28181;BME280;15464;50.988;10.318;2023-06-10T10:34:29;98915.09;;;25.11;46.78
28181;BME280;15464;50.988;10.318;2023-06-10T10:36:57;98913.06;;;25.07;47.42
28181;BME280;15464;50.988;10.318;2023-06-10T10:39:25;98910.38;;;25.25;46.87
28181;BME280;15464;50.988;10.318;2023-06-10T10:41:55;98908.94;;;25.41;46.95
28181;BME280;15464;50.988;10.318;2023-06-10T10:44:23;98909.63;;;25.54;46.83
28181;BME280;15464;50.988;10.318;2023-06-10T10:46:51;98912.09;;;25.56;45.56
28181;BME280;15464;50.988;10.318;2023-06-10T10:49:18;98904.94;;;25.80;45.38
28181;BME280;15464;50.988;10.318;2023-06-10T10:51:59;98909.47;;;25.67;43.80
28181;BME280;15464;50.988;10.318;2023-06-10T10:54:31;98916.84;;;25.79;44.19
28181;BME280;15464;50.988;10.318;2023-06-10T10:59:44;98907.81;;;26.26;45.24
28181;BME280;15464;50.988;10.318;2023-06-10T11:02:16;98901.97;;;26.53;43.49
28181;BME280;15464;50.988;10.318;2023-06-10T11:04:46;98904.81;;;26.58;42.98
28181;BME280;15464;50.988;10.318;2023-06-10T11:07:14;98897.03;;;26.73;42.59
28181;BME280;15464;50.988;10.318;2023-06-10T11:10:09;98897.84;;;26.73;42.08
28181;BME280;15464;50.988;10.318;2023-06-10T11:15:13;98896.44;;;27.69;41.95
28181;BME280;15464;50.988;10.318;2023-06-10T11:29:04;98882.25;;;27.67;39.93
28181;BME280;15464;50.988;10.318;2023-06-10T11:31:33;98870.75;;;27.93;39.32
28181;BME280;15464;50.988;10.318;2023-06-10T11:34:04;98878.53;;;28.01;40.03
28181;BME280;15464;50.988;10.318;2023-06-10T11:36:33;98869.84;;;28.49;38.62
28181;BME280;15464;50.988;10.318;2023-06-10T11:39:02;98869.50;;;28.63;39.28
28181;BME280;15464;50.988;10.318;2023-06-10T11:41:30;98871.81;;;28.87;38.22
28181;BME280;15464;50.988;10.318;2023-06-10T11:44:03;98880.19;;;28.64;38.37
28181;BME280;15464;50.988;10.318;2023-06-10T11:46:30;98867.59;;;28.63;38.52
28181;BME280;15464;50.988;10.318;2023-06-10T11:49:00;98863.03;;;29.02;38.46
28181;BME280;15464;50.988;10.318;2023-06-10T11:51:33;98868.16;;;29.37;38.56
28181;BME280;15464;50.988;10.318;2023-06-10T11:54:01;98865.03;;;29.50;38.58
28181;BME280;15464;50.988;10.318;2023-06-10T11:56:30;98865.03;;;29.50;37.58
28181;BME280;15464;50.988;10.318;2023-06-10T12:01:26;98866.53;;;28.98;38.68
28181;BME280;15464;50.988;10.318;2023-06-10T12:03:59;98860.81;;;29.21;38.24
28181;BME280;15464;50.988;10.318;2023-06-10T12:06:26;98866.13;;;29.71;38.59
28181;BME280;15464;50.988;10.318;2023-06-10T12:08:53;98870.69;;;29.65;37.88
28181;BME280;15464;50.988;10.318;2023-06-10T12:11:25;98853.25;;;29.93;37.40
28181;BME280;15464;50.988;10.318;2023-06-10T12:13:53;98857.91;;;29.49;37.37
28181;BME280;15464;50.988;10.318;2023-06-10T12:16:19;98854.75;;;29.57;37.28
28181;BME280;15464;50.988;10.318;2023-06-10T12:18:47;98850.88;;;30.02;37.00
28181;BME280;15464;50.988;10.318;2023-06-10T12:21:23;98854.81;;;29.89;34.64
28181;BME280;15464;50.988;10.318;2023-06-10T12:24:04;98853.31;;;30.30;34.45
28181;BME280;15464;50.988;10.318;2023-06-10T12:26:41;98851.81;;;30.18;34.30
28181;BME280;15464;50.988;10.318;2023-06-10T12:34:28;98853.09;;;30.37;34.64
28181;BME280;15464;50.988;10.318;2023-06-10T12:36:55;98843.44;;;29.97;34.13
28181;BME280;15464;50.988;10.318;2023-06-10T12:39:22;98850.25;;;29.95;34.76
28181;BME280;15464;50.988;10.318;2023-06-10T12:41:50;98845.16;;;30.03;34.70
28181;BME280;15464;50.988;10.318;2023-06-10T12:44:17;98839.50;;;30.15;34.69
28181;BME280;15464;50.988;10.318;2023-06-10T12:46:44;98846.63;;;30.16;34.62
28181;BME280;15464;50.988;10.318;2023-06-10T12:49:20;98835.09;;;30.46;33.92
28181;BME280;15464;50.988;10.318;2023-06-10T12:51:47;98829.84;;;30.39;34.69
28181;BME280;15464;50.988;10.318;2023-06-10T12:54:14;98845.91;;;29.99;34.89
28181;BME280;15464;50.988;10.318;2023-06-10T12:56:41;98843.50;;;29.81;34.93
28181;BME280;15464;50.988;10.318;2023-06-10T12:59:07;98831.19;;;29.78;35.35
28181;BME280;15464;50.988;10.318;2023-06-10T13:01:34;98842.09;;;29.51;34.91
28181;BME280;15464;50.988;10.318;2023-06-10T13:04:01;98826.44;;;29.68;34.73
28181;BME280;15464;50.988;10.318;2023-06-10T13:06:28;98823.66;;;29.90;35.00
28181;BME280;15464;50.988;10.318;2023-06-10T13:08:55;98839.41;;;30.05;34.69
28181;BME280;15464;50.988;10.318;2023-06-10T13:11:22;98824.41;;;30.13;34.73
28181;BME280;15464;50.988;10.318;2023-06-10T13:13:52;98826.16;;;30.24;35.34
28181;BME280;15464;50.988;10.318;2023-06-10T13:16:18;98827.81;;;30.25;34.75
28181;BME280;15464;50.988;10.318;2023-06-10T13:18:45;98826.97;;;29.44;35.94
28181;BME280;15464;50.988;10.318;2023-06-10T13:21:12;98835.25;;;29.76;35.65